createdAt,value
2018-06-13T00:02:00.350Z,14.80
2018-06-13T00:04:05.710Z,15.00
2018-06-13T00:06:10.661Z,15.20
2018-06-13T00:08:15.886Z,15.00
2018-06-13T00:10:21.015Z,14.90
2018-06-13T00:12:26.076Z,15.00
2018-06-13T00:14:31.075Z,15.10
2018-06-13T00:16:36.134Z,15.30
2018-06-13T00:18:41.158Z,15.10
2018-06-13T00:20:46.205Z,14.80
2018-06-13T00:22:51.193Z,14.90
2018-06-13T00:24:56.076Z,15.00
2018-06-13T00:27:01.058Z,15.10
2018-06-13T00:29:06.380Z,15.10
2018-06-13T00:31:11.483Z,15.00
2018-06-13T00:33:16.511Z,14.80
2018-06-13T00:35:21.850Z,15.10
2018-06-13T00:37:26.827Z,14.70
2018-06-13T00:39:32.249Z,15.00
2018-06-13T00:41:37.291Z,15.00
2018-06-13T00:43:42.629Z,15.10
2018-06-13T00:45:48.092Z,15.10
2018-06-13T00:47:53.053Z,15.10
2018-06-13T00:49:58.015Z,15.00
2018-06-13T00:52:03.948Z,14.80
2018-06-13T00:54:09.191Z,14.90
2018-06-13T00:56:35.177Z,15.20
2018-06-13T00:58:40.165Z,15.10
2018-06-13T01:00:46.734Z,15.00
2018-06-13T01:02:51.598Z,15.60
2018-06-13T01:04:57.218Z,15.60
2018-06-13T01:07:02.818Z,15.70
2018-06-13T01:09:09.119Z,15.80
2018-06-13T01:11:14.215Z,15.60
2018-06-13T01:13:19.378Z,15.90
2018-06-13T01:15:24.583Z,15.80
2018-06-13T01:17:29.899Z,15.90
2018-06-13T01:19:34.978Z,15.70
2018-06-13T01:21:40.164Z,15.60
2018-06-13T01:23:45.115Z,15.30
2018-06-13T01:25:50.488Z,15.40
2018-06-13T01:27:55.421Z,15.20
2018-06-13T01:30:02.518Z,15.10
2018-06-13T01:32:07.451Z,14.80
2018-06-13T01:34:12.730Z,14.60
2018-06-13T01:36:18.108Z,14.90
2018-06-13T01:38:23.338Z,14.80
2018-06-13T01:40:28.289Z,14.90
2018-06-13T01:42:33.390Z,14.90
2018-06-13T01:46:43.273Z,14.30
2018-06-13T01:48:48.279Z,14.40
2018-06-13T01:50:57.533Z,14.50
2018-06-13T01:53:02.570Z,14.70
2018-06-13T01:55:07.565Z,14.70
2018-06-13T01:57:12.579Z,14.50
2018-06-13T01:59:17.530Z,14.60
2018-06-13T02:01:22.432Z,14.80
2018-06-13T02:03:27.402Z,14.80
2018-06-13T02:05:32.848Z,14.70
2018-06-13T02:07:37.943Z,14.70
2018-06-13T02:09:43.078Z,14.90
2018-06-13T02:11:48.050Z,14.90
2018-06-13T02:13:53.502Z,14.90
2018-06-13T02:15:58.481Z,14.90
2018-06-13T02:18:03.964Z,14.90
2018-06-13T02:20:08.943Z,14.90
2018-06-13T02:22:14.241Z,15.10
2018-06-13T02:24:19.166Z,15.10
2018-06-13T02:26:24.539Z,14.90
2018-06-13T02:28:29.962Z,14.80
2018-06-13T02:30:34.838Z,15.00
2018-06-13T02:32:42.563Z,15.00
2018-06-13T02:34:47.923Z,14.80
2018-06-13T02:36:52.863Z,14.80
2018-06-13T02:38:57.911Z,14.80
2018-06-13T02:41:02.869Z,14.80
2018-06-13T02:43:07.849Z,14.90
2018-06-13T02:45:12.783Z,14.80
2018-06-13T02:47:18.138Z,14.70
2018-06-13T02:49:23.055Z,14.80
2018-06-13T02:51:28.719Z,14.70
2018-06-13T02:53:34.054Z,14.70
2018-06-13T02:55:39.001Z,14.80
2018-06-13T02:57:43.924Z,14.90
2018-06-13T02:59:48.896Z,14.70
2018-06-13T03:01:53.909Z,14.70
2018-06-13T03:03:59.421Z,14.30
2018-06-13T03:06:04.397Z,14.00
2018-06-13T03:08:09.381Z,14.20
2018-06-13T03:10:14.339Z,14.20
2018-06-13T03:12:19.309Z,14.20
2018-06-13T03:14:24.319Z,14.40
2018-06-13T03:16:29.723Z,14.20
2018-06-13T03:18:34.673Z,14.00
2018-06-13T03:20:39.575Z,14.60
2018-06-13T03:22:45.210Z,15.00
2018-06-13T03:24:50.917Z,14.90
2018-06-13T03:26:56.109Z,14.60
2018-06-13T03:29:01.103Z,14.90
2018-06-13T03:31:06.018Z,14.80
2018-06-13T03:33:10.928Z,15.00
2018-06-13T03:35:15.881Z,15.10
2018-06-13T03:37:21.114Z,14.90
2018-06-13T03:39:26.440Z,14.90
2018-06-13T03:41:31.738Z,14.80
2018-06-13T03:45:41.014Z,14.80
2018-06-13T03:47:46.317Z,14.70
2018-06-13T03:49:51.630Z,14.90
2018-06-13T03:51:56.591Z,15.10
2018-06-13T03:54:01.652Z,15.10
2018-06-13T03:56:06.611Z,15.20
2018-06-13T03:58:11.565Z,15.30
2018-06-13T04:00:16.468Z,15.30
2018-06-13T04:02:21.414Z,15.30
2018-06-13T04:04:26.340Z,15.20
2018-06-13T04:06:31.214Z,15.30
2018-06-13T04:08:36.308Z,15.30
2018-06-13T04:10:41.273Z,15.40
2018-06-13T04:12:46.160Z,15.30
2018-06-13T04:14:51.249Z,15.20
2018-06-13T04:16:56.255Z,15.20
2018-06-13T04:19:01.447Z,15.30
2018-06-13T04:21:07.288Z,15.30
2018-06-13T04:23:12.221Z,15.40
2018-06-13T04:25:17.134Z,15.40
2018-06-13T04:27:23.059Z,15.20
2018-06-13T04:29:28.032Z,15.20
2018-06-13T04:31:33.338Z,15.10
2018-06-13T04:33:38.281Z,15.00
2018-06-13T04:35:43.130Z,14.90
2018-06-13T04:37:48.545Z,14.70
2018-06-13T04:39:53.504Z,14.90
2018-06-13T04:42:00.546Z,15.10
2018-06-13T04:44:05.825Z,15.40
2018-06-13T04:46:11.010Z,15.10
2018-06-13T04:48:15.966Z,15.00
2018-06-13T04:50:20.914Z,15.20
2018-06-13T04:52:25.824Z,15.30
2018-06-13T04:56:35.957Z,15.30
2018-06-13T04:58:42.071Z,15.30
2018-06-13T05:00:47.441Z,15.40
2018-06-13T05:02:52.573Z,15.50
2018-06-13T05:04:58.057Z,15.50
2018-06-13T05:07:03.047Z,15.50
2018-06-13T05:09:11.505Z,15.40
2018-06-13T05:11:16.591Z,15.40
2018-06-13T05:13:21.582Z,15.60
2018-06-13T05:15:26.580Z,15.60
2018-06-13T05:17:32.184Z,15.60
2018-06-13T05:19:37.163Z,15.60
2018-06-13T05:21:42.174Z,15.60
2018-06-13T05:23:47.233Z,15.60
2018-06-13T05:25:53.108Z,15.60
2018-06-13T05:27:58.071Z,15.60
2018-06-13T05:30:03.402Z,15.60
2018-06-13T05:32:08.668Z,15.50
2018-06-13T05:36:17.879Z,15.60
2018-06-13T05:38:23.099Z,15.50
2018-06-13T05:40:29.440Z,15.50
2018-06-13T05:42:34.868Z,15.50
2018-06-13T05:44:40.231Z,15.60
2018-06-13T05:46:45.303Z,15.60
2018-06-13T05:48:50.252Z,15.30
2018-06-13T05:50:55.639Z,15.40
2018-06-13T05:53:01.592Z,15.40
2018-06-13T05:55:06.877Z,15.30
2018-06-13T05:57:11.878Z,15.60
2018-06-13T05:59:16.789Z,15.60
2018-06-13T06:01:21.855Z,15.70
2018-06-13T06:03:26.779Z,15.50
2018-06-13T06:05:32.135Z,15.60
2018-06-13T06:07:37.073Z,15.60
2018-06-13T06:09:41.999Z,15.70
2018-06-13T06:11:47.211Z,15.60
2018-06-13T06:13:52.285Z,15.70
2018-06-13T06:15:57.265Z,15.80
2018-06-13T06:18:02.540Z,15.70
2018-06-13T06:20:09.096Z,15.70
2018-06-13T06:22:14.436Z,15.60
2018-06-13T06:24:20.134Z,15.80
2018-06-13T06:26:25.115Z,15.80
2018-06-13T06:28:31.588Z,15.80
2018-06-13T06:30:37.548Z,15.80
2018-06-13T06:32:42.513Z,15.80
2018-06-13T06:34:48.737Z,15.80
2018-06-13T06:36:54.025Z,15.70
2018-06-13T06:38:59.738Z,15.80
2018-06-13T06:41:04.686Z,15.70
2018-06-13T06:43:09.803Z,15.70
2018-06-13T06:45:15.571Z,15.60
2018-06-13T06:47:20.532Z,15.70
2018-06-13T06:49:25.504Z,15.80
2018-06-13T06:51:30.476Z,16.00
2018-06-13T06:53:35.466Z,15.80
2018-06-13T06:55:41.215Z,15.70
2018-06-13T06:57:47.230Z,15.80
2018-06-13T06:59:52.234Z,15.90
2018-06-13T07:01:57.176Z,16.00
2018-06-13T07:04:02.198Z,16.20
2018-06-13T07:06:08.663Z,16.20
2018-06-13T07:08:14.003Z,16.20
2018-06-13T07:10:18.978Z,16.10
2018-06-13T07:12:23.896Z,16.10
2018-06-13T07:14:29.613Z,15.90
2018-06-13T07:16:39.222Z,15.90
2018-06-13T07:18:44.278Z,16.10
2018-06-13T07:23:21.851Z,16.30
2018-06-13T07:25:26.831Z,16.30
2018-06-13T07:27:31.794Z,16.30
2018-06-13T07:29:36.787Z,16.30
2018-06-13T07:31:41.855Z,16.40
2018-06-13T07:33:46.789Z,16.30
2018-06-13T07:35:51.800Z,16.20
2018-06-13T07:37:56.783Z,16.00
2018-06-13T07:40:01.776Z,16.20
2018-06-13T07:42:06.870Z,16.10
2018-06-13T07:44:11.824Z,16.00
2018-06-13T07:46:16.784Z,16.10
2018-06-13T07:48:21.744Z,16.20
2018-06-13T07:50:26.691Z,16.00
2018-06-13T07:52:31.622Z,16.20
2018-06-13T07:54:36.591Z,16.30
2018-06-13T07:56:41.679Z,16.30
2018-06-13T07:58:46.659Z,16.30
2018-06-13T08:00:51.964Z,16.30
2018-06-13T08:02:56.933Z,16.20
2018-06-13T08:05:01.888Z,16.30
2018-06-13T08:07:06.963Z,16.30
2018-06-13T08:09:11.900Z,16.30
2018-06-13T08:11:16.900Z,16.40
2018-06-13T08:13:21.850Z,16.40
2018-06-13T08:15:26.810Z,16.20
2018-06-13T08:17:31.857Z,16.30
2018-06-13T08:19:36.822Z,16.30
2018-06-13T08:21:41.734Z,16.40
2018-06-13T08:23:46.700Z,16.50
2018-06-13T08:25:51.672Z,16.40
2018-06-13T08:27:56.583Z,16.30
2018-06-13T08:30:01.557Z,16.50
2018-06-13T08:32:06.532Z,16.60
2018-06-13T08:34:11.464Z,16.70
2018-06-13T08:36:16.455Z,16.70
2018-06-13T08:38:21.491Z,16.60
2018-06-13T08:40:26.358Z,16.60
2018-06-13T08:42:31.371Z,16.60
2018-06-13T08:44:36.291Z,16.60
2018-06-13T08:46:41.247Z,16.60
2018-06-13T08:48:46.255Z,16.40
2018-06-13T08:50:51.211Z,16.30
2018-06-13T08:52:56.513Z,16.50
2018-06-13T08:55:01.769Z,16.50
2018-06-13T08:57:06.700Z,16.60
2018-06-13T08:59:11.624Z,16.50
2018-06-13T09:01:16.568Z,16.40
2018-06-13T09:03:21.557Z,16.20
2018-06-13T09:05:26.513Z,16.00
2018-06-13T09:07:31.414Z,16.30
2018-06-13T09:09:36.424Z,16.40
2018-06-13T09:11:41.416Z,16.50
2018-06-13T09:13:46.346Z,16.40
2018-06-13T09:15:51.448Z,16.40
2018-06-13T09:17:56.486Z,16.40
2018-06-13T09:20:01.394Z,16.50
2018-06-13T09:22:06.440Z,16.70
2018-06-13T09:24:11.373Z,16.70
2018-06-13T09:26:16.434Z,16.70
2018-06-13T09:28:21.437Z,16.80
2018-06-13T09:30:26.345Z,16.80
2018-06-13T09:32:31.350Z,16.90
2018-06-13T09:34:36.291Z,16.90
2018-06-13T09:36:41.285Z,16.90
2018-06-13T09:38:46.297Z,16.70
2018-06-13T09:40:51.250Z,16.80
2018-06-13T09:42:56.235Z,16.60
2018-06-13T09:45:01.227Z,16.60
2018-06-13T09:47:06.908Z,16.70
2018-06-13T09:49:11.263Z,16.40
2018-06-13T09:51:16.238Z,16.60
2018-06-13T09:53:21.208Z,16.30
2018-06-13T09:55:26.148Z,16.60
2018-06-13T09:57:31.158Z,16.60
2018-06-13T09:59:36.643Z,16.70
2018-06-13T10:01:49.389Z,16.60
2018-06-13T10:03:54.317Z,16.40
2018-06-13T10:05:59.300Z,16.70
2018-06-13T10:08:04.527Z,16.60
2018-06-13T10:10:09.485Z,16.60
2018-06-13T10:12:14.402Z,16.80
2018-06-13T10:14:19.409Z,16.70
2018-06-13T10:16:24.443Z,16.70
2018-06-13T10:18:29.386Z,16.80
2018-06-13T10:20:34.335Z,16.80
2018-06-13T10:22:39.516Z,16.90
2018-06-13T10:24:44.519Z,17.00
2018-06-13T10:26:49.482Z,17.00
2018-06-13T10:28:54.488Z,17.00
2018-06-13T10:30:59.434Z,17.00
2018-06-13T10:33:04.396Z,17.00
2018-06-13T10:35:11.518Z,17.00
2018-06-13T10:37:16.499Z,17.00
2018-06-13T10:39:22.123Z,17.10
2018-06-13T10:41:27.181Z,17.10
2018-06-13T10:43:32.626Z,17.00
2018-06-13T10:45:37.579Z,17.00
2018-06-13T10:47:42.571Z,17.10
2018-06-13T10:49:47.610Z,17.20
2018-06-13T10:51:53.098Z,17.30
2018-06-13T10:53:58.371Z,17.20
2018-06-13T10:56:03.621Z,17.20
2018-06-13T10:58:08.794Z,17.30
2018-06-13T11:00:13.772Z,17.40
2018-06-13T11:02:18.751Z,17.40
2018-06-13T11:04:24.310Z,17.40
2018-06-13T11:06:29.292Z,17.30
2018-06-13T11:08:34.220Z,17.30
2018-06-13T11:10:39.283Z,17.30
2018-06-13T11:12:44.475Z,17.30
2018-06-13T11:14:50.051Z,17.30
2018-06-13T11:16:55.428Z,17.30
2018-06-13T11:19:00.539Z,17.20
2018-06-13T11:21:06.189Z,17.30
2018-06-13T11:23:11.695Z,17.20
2018-06-13T11:25:16.723Z,17.10
2018-06-13T11:27:21.675Z,17.20
2018-06-13T11:29:26.588Z,17.10
2018-06-13T11:31:32.488Z,17.10
2018-06-13T11:33:37.575Z,17.20
2018-06-13T11:35:42.474Z,17.40
2018-06-13T11:37:47.493Z,17.40
2018-06-13T11:39:52.398Z,17.40
2018-06-13T11:41:57.326Z,17.40
2018-06-13T11:44:02.265Z,17.40
2018-06-13T11:46:07.285Z,17.50
2018-06-13T11:48:12.271Z,17.20
2018-06-13T11:50:17.392Z,17.40
2018-06-13T11:52:22.435Z,17.50
2018-06-13T11:54:27.388Z,17.60
2018-06-13T11:56:32.380Z,17.50
2018-06-13T11:58:37.331Z,17.50
2018-06-13T12:00:42.291Z,17.60
2018-06-13T12:02:47.166Z,17.60
2018-06-13T12:04:52.427Z,17.70
2018-06-13T12:06:57.388Z,17.80
2018-06-13T12:09:02.359Z,17.70
2018-06-13T12:11:07.655Z,17.50
2018-06-13T12:13:12.615Z,17.50
2018-06-13T12:15:17.647Z,17.60
2018-06-13T12:17:22.736Z,17.40
2018-06-13T12:19:27.708Z,17.50
2018-06-13T12:21:32.700Z,17.30
2018-06-13T12:23:37.659Z,17.40
2018-06-13T12:25:42.924Z,17.40
2018-06-13T12:27:47.955Z,17.40
2018-06-13T12:29:53.900Z,17.50
2018-06-13T12:31:59.648Z,17.50
2018-06-13T12:34:05.115Z,17.70
2018-06-13T12:36:10.723Z,17.80
2018-06-13T12:38:15.984Z,17.50
2018-06-13T12:40:21.096Z,17.20
2018-06-13T12:42:26.419Z,17.60
2018-06-13T12:44:31.356Z,17.60
2018-06-13T12:46:36.828Z,17.20
2018-06-13T12:48:41.755Z,17.40
2018-06-13T12:50:46.802Z,17.40
2018-06-13T12:52:51.846Z,17.40
2018-06-13T12:54:56.805Z,17.50
2018-06-13T12:57:02.310Z,17.70
2018-06-13T12:59:08.120Z,18.00
2018-06-13T13:01:13.101Z,18.40
2018-06-13T13:03:18.125Z,18.50
2018-06-13T13:05:23.523Z,18.10
2018-06-13T13:07:29.136Z,18.00
2018-06-13T13:09:34.623Z,17.90
2018-06-13T13:11:39.574Z,17.80
2018-06-13T13:13:44.470Z,17.90
2018-06-13T13:15:49.482Z,18.00
2018-06-13T13:17:54.415Z,18.10
2018-06-13T13:19:59.444Z,18.00
2018-06-13T13:22:04.430Z,18.00
2018-06-13T13:24:10.447Z,18.40
2018-06-13T13:26:16.371Z,18.90
2018-06-13T13:28:22.076Z,19.60
2018-06-13T13:30:27.135Z,18.90
2018-06-13T13:32:32.805Z,18.60
2018-06-13T13:34:37.773Z,18.40
2018-06-13T13:36:42.758Z,18.40
2018-06-13T13:38:47.681Z,18.50
2018-06-13T13:40:53.630Z,18.40
2018-06-13T13:42:59.031Z,18.50
2018-06-13T13:45:04.056Z,18.50
2018-06-13T13:47:09.281Z,18.80
2018-06-13T13:49:14.457Z,19.30
2018-06-13T13:51:19.374Z,19.60
2018-06-13T13:53:25.284Z,19.70
2018-06-13T13:55:30.363Z,20.10
2018-06-13T13:57:35.370Z,20.00
2018-06-13T13:59:40.716Z,19.30
2018-06-13T14:01:45.809Z,19.10
2018-06-13T14:03:50.692Z,19.20
2018-06-13T14:05:56.363Z,19.30
2018-06-13T14:10:32.162Z,19.40
2018-06-13T14:12:37.057Z,19.10
2018-06-13T14:14:41.972Z,19.20
2018-06-13T14:16:46.891Z,19.50
2018-06-13T14:18:52.116Z,19.80
2018-06-13T14:20:57.082Z,20.40
2018-06-13T14:23:02.102Z,20.00
2018-06-13T14:25:07.083Z,19.70
2018-06-13T14:27:12.190Z,20.00
2018-06-13T14:29:17.518Z,20.20
2018-06-13T14:31:22.448Z,19.80
2018-06-13T14:33:27.476Z,20.30
2018-06-13T14:35:32.879Z,20.00
2018-06-13T14:37:37.796Z,20.00
2018-06-13T14:39:42.795Z,19.60
2018-06-13T14:41:47.770Z,19.90
2018-06-13T14:43:52.793Z,20.20
2018-06-13T14:45:57.735Z,19.70
2018-06-13T14:48:02.697Z,19.60
2018-06-13T14:50:07.674Z,19.60
2018-06-13T14:52:12.618Z,19.90
2018-06-13T14:54:17.549Z,20.40
2018-06-13T14:56:27.698Z,19.90
2018-06-13T14:58:32.620Z,20.20
2018-06-13T15:00:37.710Z,19.90
2018-06-13T15:02:42.715Z,19.40
2018-06-13T15:04:47.621Z,19.20
2018-06-13T15:06:52.610Z,19.20
2018-06-13T15:08:57.556Z,19.20
2018-06-13T15:11:02.609Z,19.20
2018-06-13T15:13:07.662Z,19.70
2018-06-13T15:15:12.575Z,20.30
2018-06-13T15:17:17.614Z,20.80
2018-06-13T15:19:22.654Z,20.80
2018-06-13T15:21:27.650Z,20.40
2018-06-13T15:23:32.630Z,20.10
2018-06-13T15:25:37.581Z,19.60
2018-06-13T15:27:42.606Z,19.40
2018-06-13T15:29:47.671Z,19.30
2018-06-13T15:31:52.688Z,19.20
2018-06-13T15:33:57.704Z,19.20
2018-06-13T15:36:02.723Z,19.10
2018-06-13T15:38:07.675Z,19.10
2018-06-13T15:40:12.628Z,19.00
2018-06-13T15:42:17.573Z,18.80
2018-06-13T15:44:22.558Z,19.00
2018-06-13T15:46:27.491Z,18.90
2018-06-13T15:48:32.424Z,18.70
2018-06-13T15:50:37.504Z,18.80
2018-06-13T15:52:42.433Z,18.80
2018-06-13T15:54:47.421Z,18.70
2018-06-13T15:56:52.373Z,18.60
2018-06-13T15:58:57.476Z,18.60
2018-06-13T16:01:02.450Z,18.60
2018-06-13T16:03:07.683Z,18.50
2018-06-13T16:05:12.660Z,18.50
2018-06-13T16:07:17.630Z,18.50
2018-06-13T16:09:22.618Z,18.50
2018-06-13T16:11:27.529Z,18.20
2018-06-13T16:13:32.551Z,18.20
2018-06-13T16:15:37.626Z,18.20
2018-06-13T16:17:42.618Z,18.30
2018-06-13T16:19:47.573Z,18.20
2018-06-13T16:21:52.575Z,18.00
2018-06-13T16:23:57.574Z,17.90
2018-06-13T16:26:03.377Z,18.10
2018-06-13T16:28:08.310Z,18.00
2018-06-13T16:30:13.334Z,17.80
2018-06-13T16:32:18.259Z,17.70
2018-06-13T16:34:23.211Z,18.00
2018-06-13T16:36:28.196Z,18.00
2018-06-13T16:38:33.254Z,17.80
2018-06-13T16:40:38.222Z,17.90
2018-06-13T16:42:43.738Z,17.70
2018-06-13T16:44:48.774Z,17.60
2018-06-13T16:46:53.783Z,17.90
2018-06-13T16:48:58.774Z,17.90
2018-06-13T16:51:14.673Z,18.10
2018-06-13T16:54:28.003Z,18.10
2018-06-13T16:58:37.394Z,18.10
2018-06-13T17:00:42.425Z,17.90
2018-06-13T17:02:47.811Z,17.70
2018-06-13T17:04:52.786Z,17.80
2018-06-13T17:06:57.951Z,17.80
2018-06-13T17:09:02.989Z,17.90
2018-06-13T17:11:08.018Z,17.90
2018-06-13T17:13:13.034Z,17.90
2018-06-13T17:15:18.030Z,17.80
2018-06-13T17:17:22.952Z,17.70
2018-06-13T17:19:28.005Z,17.70
2018-06-13T17:21:33.131Z,17.70
2018-06-13T17:23:38.389Z,17.90
2018-06-13T17:25:43.382Z,17.50
2018-06-13T17:27:48.333Z,17.50
2018-06-13T17:29:54.196Z,17.90
2018-06-13T17:31:59.213Z,17.80
2018-06-13T17:34:04.250Z,18.00
2018-06-13T17:36:09.278Z,18.10
2018-06-13T17:38:14.211Z,17.90
2018-06-13T17:40:19.170Z,17.40
2018-06-13T17:42:24.667Z,17.70
2018-06-13T17:44:30.279Z,17.90
2018-06-13T17:46:35.243Z,17.90
2018-06-13T17:48:40.276Z,17.80
2018-06-13T17:50:45.214Z,17.80
2018-06-13T17:52:50.275Z,17.60
2018-06-13T17:54:55.210Z,17.70
2018-06-13T17:57:00.098Z,17.80
2018-06-13T17:59:05.251Z,17.20
2018-06-13T18:01:10.185Z,17.50
2018-06-13T18:03:15.171Z,17.60
2018-06-13T18:05:20.164Z,17.50
2018-06-13T18:07:25.115Z,17.60
2018-06-13T18:09:30.245Z,17.70
2018-06-13T18:11:35.267Z,17.60
2018-06-13T18:13:40.226Z,17.60
2018-06-13T18:15:45.341Z,17.60
2018-06-13T18:17:50.231Z,17.70
2018-06-13T18:19:55.894Z,17.50
2018-06-13T18:22:00.934Z,17.60
2018-06-13T18:24:06.000Z,17.60
2018-06-13T18:26:11.029Z,17.70
2018-06-13T18:28:15.985Z,17.50
2018-06-13T18:32:25.284Z,17.20
2018-06-13T18:34:30.256Z,17.10
2018-06-13T18:36:35.147Z,17.20
2018-06-13T18:38:40.048Z,17.20
2018-06-13T18:40:45.020Z,17.20
2018-06-13T18:42:50.358Z,17.30
2018-06-13T18:44:55.344Z,17.40
2018-06-13T18:47:00.250Z,17.20
2018-06-13T18:49:05.329Z,17.20
2018-06-13T18:51:10.272Z,17.20
2018-06-13T18:53:15.240Z,16.70
2018-06-13T18:55:20.232Z,16.90
2018-06-13T18:57:25.268Z,16.90
2018-06-13T18:59:30.555Z,17.00
2018-06-13T19:01:35.531Z,16.80
2018-06-13T19:03:40.468Z,16.40
2018-06-13T19:05:45.394Z,16.60
2018-06-13T19:07:50.382Z,16.60
2018-06-13T19:09:55.337Z,16.50
2018-06-13T19:12:00.238Z,16.60
2018-06-13T19:14:05.480Z,16.60
2018-06-13T19:16:10.610Z,16.70
2018-06-13T19:18:15.559Z,16.60
2018-06-13T19:20:20.542Z,16.40
2018-06-13T19:22:25.719Z,16.50
2018-06-13T19:24:30.655Z,16.60
2018-06-13T19:26:35.595Z,16.50
2018-06-13T19:28:40.580Z,16.60
2018-06-13T19:30:45.527Z,16.60
2018-06-13T19:32:50.474Z,16.30
2018-06-13T19:34:55.438Z,16.20
2018-06-13T19:37:00.664Z,16.40
2018-06-13T19:39:07.994Z,16.30
2018-06-13T19:41:12.914Z,16.40
2018-06-13T19:43:22.923Z,16.30
2018-06-13T19:45:27.890Z,16.50
2018-06-13T19:47:38.044Z,16.60
2018-06-13T19:49:43.369Z,16.00
2018-06-13T19:51:49.186Z,16.20
2018-06-13T19:53:59.375Z,16.50
2018-06-13T19:56:07.856Z,16.40
2018-06-13T19:58:12.786Z,16.30
2018-06-13T20:00:18.131Z,16.40
2018-06-13T20:02:23.110Z,16.40
2018-06-13T20:04:33.099Z,16.20
2018-06-13T20:06:38.783Z,16.40
2018-06-13T20:08:43.811Z,16.30
2018-06-13T20:10:49.266Z,16.30
2018-06-13T20:12:59.319Z,16.10
2018-06-13T20:15:09.616Z,16.10
2018-06-13T20:17:20.103Z,16.00
2018-06-13T20:19:30.152Z,16.00
2018-06-13T20:21:35.147Z,16.00
2018-06-13T20:23:41.105Z,16.10
2018-06-13T20:25:51.247Z,16.00
2018-06-13T20:28:01.206Z,16.00
2018-06-13T20:30:11.296Z,16.10
2018-06-13T20:32:20.053Z,16.20
2018-06-13T20:34:25.593Z,16.30
2018-06-13T20:36:31.316Z,16.10
2018-06-13T20:38:36.513Z,16.10
2018-06-13T20:40:42.372Z,16.10
2018-06-13T20:42:47.414Z,16.00
2018-06-13T20:44:52.503Z,16.00
2018-06-13T20:46:57.663Z,15.80
2018-06-13T20:49:03.040Z,15.70
2018-06-13T20:51:08.343Z,15.80
2018-06-13T20:53:13.340Z,15.90
2018-06-13T20:55:18.724Z,15.80
2018-06-13T20:57:24.003Z,15.80
2018-06-13T20:59:29.078Z,15.80
2018-06-13T21:01:34.564Z,15.80
2018-06-13T21:03:39.651Z,15.70
2018-06-13T21:05:44.647Z,15.70
2018-06-13T21:07:49.895Z,15.60
2018-06-13T21:09:54.901Z,15.70
2018-06-13T21:12:00.449Z,15.80
2018-06-13T21:14:05.750Z,15.60
2018-06-13T21:18:15.094Z,15.70
2018-06-13T21:20:20.062Z,15.60
2018-06-13T21:22:25.059Z,15.80
2018-06-13T21:24:30.205Z,15.80
2018-06-13T21:26:35.262Z,15.50
2018-06-13T21:28:40.622Z,15.40
2018-06-13T21:30:45.588Z,15.30
2018-06-13T21:32:51.995Z,15.30
2018-06-13T21:34:56.990Z,15.20
2018-06-13T21:37:02.500Z,15.30
2018-06-13T21:39:10.551Z,15.30
2018-06-13T21:41:15.774Z,15.30
2018-06-13T21:43:20.756Z,15.00
2018-06-13T21:45:25.708Z,15.20
2018-06-13T21:47:30.642Z,15.40
2018-06-13T21:49:36.015Z,15.40
2018-06-13T21:51:41.300Z,15.40
2018-06-13T21:53:46.239Z,15.30
2018-06-13T21:55:51.173Z,15.30
2018-06-13T21:57:56.134Z,15.20
2018-06-13T22:00:01.124Z,15.30
2018-06-13T22:02:06.392Z,15.40
2018-06-13T22:04:11.529Z,15.50
2018-06-13T22:06:16.910Z,15.50
2018-06-13T22:08:22.053Z,15.40
2018-06-13T22:10:26.963Z,15.40
2018-06-13T22:12:32.060Z,15.40
2018-06-13T22:14:37.171Z,15.50
2018-06-13T22:16:42.502Z,15.40
2018-06-13T22:18:47.448Z,15.30
2018-06-13T22:20:52.918Z,15.40
2018-06-13T22:22:57.946Z,15.20
2018-06-13T22:25:02.910Z,15.20
2018-06-13T22:27:07.975Z,15.10
2018-06-13T22:29:12.912Z,14.90
2018-06-13T22:31:18.276Z,15.00
2018-06-13T22:33:23.247Z,15.10
2018-06-13T22:35:28.395Z,14.90
2018-06-13T22:37:33.795Z,15.10
2018-06-13T22:39:39.081Z,15.20
2018-06-13T22:41:44.034Z,15.20
2018-06-13T22:43:49.001Z,15.20
2018-06-13T22:45:53.987Z,15.10
2018-06-13T22:47:59.008Z,15.00
2018-06-13T22:50:04.227Z,15.20
2018-06-13T22:52:09.247Z,15.20
2018-06-13T22:54:14.162Z,15.00
2018-06-13T22:56:19.116Z,15.00
2018-06-13T23:01:08.354Z,15.20
2018-06-13T23:03:13.619Z,15.10
2018-06-13T23:05:18.598Z,15.00
2018-06-13T23:07:23.537Z,15.20
2018-06-13T23:09:28.739Z,15.00
2018-06-13T23:11:34.694Z,15.00
2018-06-13T23:13:39.631Z,15.10
2018-06-13T23:15:45.093Z,15.10
2018-06-13T23:17:50.579Z,15.00
2018-06-13T23:19:55.630Z,15.10
2018-06-13T23:22:00.602Z,14.90
2018-06-13T23:24:05.606Z,15.10
2018-06-13T23:26:11.099Z,14.80
2018-06-13T23:28:16.520Z,15.00
2018-06-13T23:30:22.049Z,15.00
2018-06-13T23:32:27.366Z,15.20
2018-06-13T23:34:32.347Z,15.10
2018-06-13T23:36:39.065Z,15.00
2018-06-13T23:38:43.987Z,15.00
2018-06-13T23:40:48.838Z,15.10
2018-06-13T23:42:53.784Z,15.10
2018-06-13T23:44:58.845Z,15.10
2018-06-13T23:47:03.758Z,14.90
2018-06-13T23:49:08.783Z,14.90
2018-06-13T23:51:14.276Z,14.90
2018-06-13T23:53:19.230Z,14.90
2018-06-13T23:55:24.259Z,14.90
2018-06-13T23:57:29.146Z,14.70
2018-06-13T23:59:34.604Z,14.70
